Terminal Aerodrome Forecast
Issued by NWS

Home | Current Version | Previous Version | Text Only | Print | Product List | Glossary On
Versions: 1 2 3 4 5 6 7 8 9 10 11 12
427
FTUS44 KBMX 221120
TAFEET
TAF
KEET 221120Z 2212/2312 09004KT P6SM OVC018
     FM221400 13010G17KT P6SM VCSH OVC012
     FM221600 13015G23KT 3SM SHRA OVC010 PROB30 2222/2302 2SM TSRA
      BKN007CB
     FM230500 20010KT 5SM BR BKN007=

USA.gov is the U.S. government's official web portal to all federal, state and local government web resources and services.